createdAt,value
2022-08-02T00:00:59.754Z,2.42
2022-08-02T00:03:27.889Z,2.35
2022-08-02T00:05:56.232Z,2.50
2022-08-02T00:08:24.402Z,2.15
2022-08-02T00:10:52.574Z,2.00
2022-08-02T00:13:22.068Z,2.40
2022-08-02T00:15:50.285Z,2.25
2022-08-02T00:18:18.479Z,2.28
2022-08-02T00:20:46.602Z,2.53
2022-08-02T00:23:14.693Z,2.70
2022-08-02T00:25:55.352Z,2.60
2022-08-02T00:28:28.025Z,2.60
2022-08-02T00:30:57.621Z,2.38
2022-08-02T00:34:27.210Z,2.42
2022-08-02T00:36:14.541Z,2.97
2022-08-02T00:38:43.103Z,2.88
2022-08-02T00:41:17.372Z,2.75
2022-08-02T00:43:49.478Z,2.50
2022-08-02T00:46:20.283Z,2.88
2022-08-02T00:48:50.333Z,2.50
2022-08-02T00:51:19.005Z,2.40
2022-08-02T00:53:47.184Z,2.50
2022-08-02T00:56:15.269Z,2.90
2022-08-02T00:58:43.291Z,2.75
2022-08-02T01:01:12.815Z,2.80
2022-08-02T01:03:40.995Z,2.60
2022-08-02T01:06:11.144Z,2.50
2022-08-02T01:08:40.132Z,2.65
2022-08-02T01:11:08.877Z,2.70
2022-08-02T01:13:37.569Z,2.60
2022-08-02T01:16:17.214Z,2.42
2022-08-02T01:18:52.314Z,2.72
2022-08-02T01:21:42.052Z,2.45
2022-08-02T01:24:26.166Z,2.30
2022-08-02T01:27:06.494Z,2.53
2022-08-02T01:29:44.610Z,2.33
2022-08-02T01:32:17.446Z,2.20
2022-08-02T01:34:53.640Z,2.50
2022-08-02T01:37:28.386Z,2.60
2022-08-02T01:40:03.576Z,2.60
2022-08-02T01:42:34.204Z,2.47
2022-08-02T01:45:05.483Z,2.47
2022-08-02T01:47:40.481Z,2.67
2022-08-02T01:50:13.580Z,2.72
2022-08-02T01:52:53.309Z,2.50
2022-08-02T01:55:33.441Z,2.70
2022-08-02T01:58:20.216Z,2.90
2022-08-02T02:00:50.927Z,2.47
2022-08-02T02:03:24.641Z,2.80
2022-08-02T02:05:56.836Z,2.70
2022-08-02T02:08:28.783Z,2.33
2022-08-02T02:12:14.452Z,2.30
2022-08-02T02:13:51.193Z,2.17
2022-08-02T02:16:23.038Z,2.40
2022-08-02T02:18:54.348Z,2.30
2022-08-02T02:21:23.015Z,2.58
2022-08-02T02:23:51.166Z,2.47
2022-08-02T02:26:29.439Z,2.40
2022-08-02T02:29:03.064Z,2.50
2022-08-02T02:31:37.483Z,2.78
2022-08-02T02:34:11.348Z,2.70
2022-08-02T02:36:43.443Z,2.85
2022-08-02T02:39:15.483Z,2.75
2022-08-02T02:41:46.774Z,2.53
2022-08-02T02:44:19.809Z,2.50
2022-08-02T02:46:54.640Z,2.70
2022-08-02T02:49:24.554Z,2.55
2022-08-02T02:51:54.795Z,2.53
2022-08-02T02:54:33.515Z,2.45
2022-08-02T02:57:05.985Z,2.60
2022-08-02T02:59:36.292Z,2.20
2022-08-02T03:02:13.757Z,2.83
2022-08-02T03:04:56.277Z,2.42
2022-08-02T03:07:25.022Z,2.65
2022-08-02T03:09:54.412Z,2.70
2022-08-02T03:12:31.972Z,2.20
2022-08-02T03:15:02.244Z,2.63
2022-08-02T03:17:42.494Z,2.45
2022-08-02T03:20:14.061Z,2.67
2022-08-02T03:22:42.960Z,2.78
2022-08-02T03:25:13.260Z,2.50
2022-08-02T03:27:42.008Z,2.30
2022-08-02T03:30:14.158Z,2.53
2022-08-02T03:32:48.099Z,2.35
2022-08-02T03:35:23.735Z,2.80
2022-08-02T03:37:56.859Z,2.60
2022-08-02T03:40:28.491Z,2.70
2022-08-02T03:42:57.600Z,2.70
2022-08-02T03:45:27.216Z,2.22
2022-08-02T03:47:58.761Z,2.95
2022-08-02T03:50:28.881Z,3.00
2022-08-02T03:52:58.297Z,3.00
2022-08-02T03:55:26.696Z,3.00
2022-08-02T03:57:55.359Z,3.58
2022-08-02T04:00:24.546Z,3.00
2022-08-02T04:02:53.038Z,3.13
2022-08-02T04:05:22.575Z,3.38
2022-08-02T04:08:36.151Z,3.20
2022-08-02T04:10:53.988Z,3.00
2022-08-02T04:13:27.459Z,2.92
2022-08-02T04:16:07.593Z,2.90
2022-08-02T04:18:41.909Z,3.45
2022-08-02T04:21:16.781Z,3.20
2022-08-02T04:23:49.615Z,3.10
2022-08-02T04:26:19.505Z,3.47
2022-08-02T04:28:56.877Z,2.88
2022-08-02T04:31:24.986Z,3.00
2022-08-02T04:33:53.545Z,3.40
2022-08-02T04:36:31.606Z,3.03
2022-08-02T04:39:00.216Z,2.67
2022-08-02T04:41:43.871Z,2.80
2022-08-02T04:44:12.885Z,3.00
2022-08-02T04:46:41.920Z,2.72
2022-08-02T04:49:10.189Z,3.13
2022-08-02T04:51:42.026Z,2.70
2022-08-02T04:54:11.939Z,2.92
2022-08-02T04:56:40.377Z,2.72
2022-08-02T04:59:08.861Z,3.38
2022-08-02T05:01:37.121Z,2.60
2022-08-02T05:04:05.434Z,2.40
2022-08-02T05:06:33.695Z,3.00
2022-08-02T05:09:03.212Z,2.40
2022-08-02T05:11:36.374Z,2.95
2022-08-02T05:14:06.553Z,2.42
2022-08-02T05:16:34.634Z,2.40
2022-08-02T05:19:03.254Z,2.45
2022-08-02T05:21:32.299Z,2.40
2022-08-02T05:24:01.817Z,2.78
2022-08-02T05:26:29.935Z,2.55
2022-08-02T05:28:58.047Z,2.50
2022-08-02T05:31:26.136Z,2.25
2022-08-02T05:33:54.229Z,2.50
2022-08-02T05:36:22.838Z,2.40
2022-08-02T05:38:52.935Z,2.30
2022-08-02T05:41:29.244Z,2.67
2022-08-02T05:43:57.352Z,2.35
2022-08-02T05:46:25.424Z,2.20
2022-08-02T05:48:53.466Z,2.40
2022-08-02T05:51:29.659Z,2.60
2022-08-02T05:54:13.346Z,2.33
2022-08-02T05:56:52.540Z,2.33
2022-08-02T05:59:33.438Z,2.50
2022-08-02T06:02:21.117Z,2.42
2022-08-02T06:05:00.399Z,2.05
2022-08-02T06:07:30.795Z,2.13
2022-08-02T06:09:59.759Z,2.80
2022-08-02T06:12:33.847Z,3.10
2022-08-02T06:15:04.627Z,2.30
2022-08-02T06:17:33.884Z,2.85
2022-08-02T06:20:03.565Z,2.78
2022-08-02T06:22:37.148Z,2.20
2022-08-02T06:25:47.832Z,2.33
2022-08-02T06:27:58.847Z,2.05
2022-08-02T06:30:27.731Z,2.35
2022-08-02T06:32:56.256Z,2.05
2022-08-02T06:35:30.600Z,1.90
2022-08-02T06:38:03.512Z,2.28
2022-08-02T06:40:37.005Z,2.28
2022-08-02T06:43:14.647Z,2.20
2022-08-02T06:45:42.880Z,2.40
2022-08-02T06:48:11.824Z,2.40
2022-08-02T06:50:41.915Z,2.40
2022-08-02T06:53:11.151Z,2.17
2022-08-02T06:55:43.922Z,2.10
2022-08-02T06:58:14.717Z,2.30
2022-08-02T07:00:44.310Z,2.40
2022-08-02T07:03:12.579Z,2.05
2022-08-02T07:05:41.760Z,1.80
2022-08-02T07:08:09.843Z,2.00
2022-08-02T07:10:37.847Z,2.03
2022-08-02T07:13:05.898Z,2.08
2022-08-02T07:15:35.508Z,2.13
2022-08-02T07:18:03.811Z,2.20
2022-08-02T07:20:31.887Z,1.85
2022-08-02T07:23:00.019Z,2.13
2022-08-02T07:26:01.645Z,1.98
2022-08-02T07:28:23.581Z,2.30
2022-08-02T07:30:53.596Z,1.75
2022-08-02T07:33:38.262Z,2.40
2022-08-02T07:36:09.921Z,2.28
2022-08-02T07:38:45.561Z,2.20
2022-08-02T07:41:13.808Z,2.22
2022-08-02T07:43:41.991Z,1.48
2022-08-02T07:46:11.341Z,2.05
2022-08-02T07:48:39.376Z,2.60
2022-08-02T07:51:07.575Z,1.90
2022-08-02T07:53:50.399Z,2.00
2022-08-02T07:56:19.695Z,2.13
2022-08-02T07:58:47.723Z,2.25
2022-08-02T08:01:17.230Z,1.90
2022-08-02T08:03:45.774Z,2.22
2022-08-02T08:06:14.863Z,2.17
2022-08-02T08:08:44.489Z,2.20
2022-08-02T08:11:12.614Z,2.38
2022-08-02T08:13:41.164Z,2.00
2022-08-02T08:16:09.248Z,2.30
2022-08-02T08:18:38.744Z,1.85
2022-08-02T08:21:07.159Z,1.83
2022-08-02T08:23:35.717Z,2.20
2022-08-02T08:26:04.815Z,2.22
2022-08-02T08:28:32.952Z,2.20
2022-08-02T08:31:01.759Z,2.20
2022-08-02T08:33:29.841Z,2.33
2022-08-02T08:35:59.298Z,2.53
2022-08-02T08:38:30.827Z,2.10
2022-08-02T08:40:59.205Z,2.53
2022-08-02T08:43:27.289Z,2.35
2022-08-02T08:45:56.807Z,2.05
2022-08-02T08:48:30.408Z,2.30
2022-08-02T08:51:11.458Z,2.20
2022-08-02T08:53:44.900Z,2.20
2022-08-02T08:56:16.551Z,2.40
2022-08-02T08:58:47.409Z,2.28
2022-08-02T09:01:16.807Z,1.95
2022-08-02T09:03:47.027Z,2.47
2022-08-02T09:06:16.505Z,2.40
2022-08-02T09:08:45.147Z,2.15
2022-08-02T09:11:18.434Z,2.40
2022-08-02T09:13:55.013Z,2.42
2022-08-02T09:16:32.787Z,2.55
2022-08-02T09:19:02.484Z,2.30
2022-08-02T09:21:39.026Z,2.30
2022-08-02T09:24:18.875Z,2.40
2022-08-02T09:26:48.784Z,2.40
2022-08-02T09:29:18.449Z,2.90
2022-08-02T09:31:50.637Z,2.20
2022-08-02T09:34:19.886Z,2.50
2022-08-02T09:36:54.754Z,2.97
2022-08-02T09:39:26.313Z,2.83
2022-08-02T09:42:08.348Z,2.90
2022-08-02T09:44:36.558Z,2.97
2022-08-02T09:47:18.051Z,2.70
2022-08-02T09:49:52.229Z,3.13
2022-08-02T09:52:36.814Z,2.72
2022-08-02T09:55:13.094Z,3.25
2022-08-02T09:57:41.715Z,4.45
2022-08-02T10:00:13.987Z,2.88
2022-08-02T10:03:08.288Z,2.90
2022-08-02T10:05:59.126Z,2.85
2022-08-02T10:08:34.077Z,2.75
2022-08-02T10:11:03.487Z,2.67
2022-08-02T10:13:34.382Z,2.50
2022-08-02T10:16:03.696Z,2.80
2022-08-02T10:18:40.894Z,2.38
2022-08-02T10:21:20.439Z,2.22
2022-08-02T10:23:51.878Z,2.60
2022-08-02T10:26:22.106Z,2.63
2022-08-02T10:28:51.175Z,2.70
2022-08-02T10:31:26.533Z,2.58
2022-08-02T10:33:59.238Z,2.60
2022-08-02T10:36:30.820Z,2.88
2022-08-02T10:39:03.082Z,2.95
2022-08-02T10:41:49.509Z,2.88
2022-08-02T10:44:27.658Z,2.80
2022-08-02T10:47:23.424Z,2.88
2022-08-02T10:49:55.942Z,2.72
2022-08-02T10:52:25.019Z,2.80
2022-08-02T10:54:59.823Z,2.60
2022-08-02T10:57:30.463Z,2.60
2022-08-02T11:00:03.067Z,2.35
2022-08-02T11:02:42.690Z,2.75
2022-08-02T11:05:16.046Z,2.80
2022-08-02T11:07:49.168Z,3.50
2022-08-02T11:10:38.331Z,2.50
2022-08-02T11:13:15.080Z,2.50
2022-08-02T11:16:01.435Z,3.00
2022-08-02T11:19:06.781Z,2.60
2022-08-02T11:21:36.751Z,2.70
2022-08-02T11:24:29.298Z,2.70
2022-08-02T11:27:00.517Z,2.70
2022-08-02T11:29:40.052Z,2.20
2022-08-02T11:32:10.466Z,2.85
2022-08-02T11:34:40.690Z,3.03
2022-08-02T11:37:08.803Z,2.40
2022-08-02T11:39:37.095Z,2.45
2022-08-02T11:42:06.859Z,2.70
2022-08-02T11:44:42.740Z,2.58
2022-08-02T11:47:10.999Z,2.20
2022-08-02T11:49:39.478Z,2.60
2022-08-02T11:52:11.128Z,2.40
2022-08-02T11:54:41.941Z,2.42
2022-08-02T11:57:20.175Z,2.50
2022-08-02T11:59:52.123Z,2.50
2022-08-02T12:02:23.178Z,2.40
2022-08-02T12:04:58.829Z,2.13
2022-08-02T12:07:35.345Z,2.38
2022-08-02T12:10:08.755Z,2.30
2022-08-02T12:12:51.138Z,2.33
2022-08-02T12:15:32.242Z,2.40
2022-08-02T12:18:18.731Z,2.30
2022-08-02T12:20:47.409Z,2.47
2022-08-02T12:23:15.695Z,2.42
2022-08-02T12:25:43.949Z,2.53
2022-08-02T12:28:22.624Z,2.90
2022-08-02T12:30:53.731Z,2.55
2022-08-02T12:33:23.491Z,2.30
2022-08-02T12:35:52.093Z,2.00
2022-08-02T12:38:20.946Z,2.25
2022-08-02T12:40:49.489Z,2.30
2022-08-02T12:43:22.557Z,2.30
2022-08-02T12:45:53.764Z,2.28
2022-08-02T12:48:38.393Z,2.50
2022-08-02T12:51:56.981Z,2.22
2022-08-02T12:54:26.889Z,2.10
2022-08-02T12:57:11.677Z,2.30
2022-08-02T12:59:44.501Z,2.15
2022-08-02T13:02:16.671Z,2.50
2022-08-02T13:04:50.071Z,2.13
2022-08-02T13:07:19.534Z,1.90
2022-08-02T13:09:48.429Z,2.35
2022-08-02T13:12:17.414Z,2.22
2022-08-02T13:14:47.190Z,2.50
2022-08-02T13:17:15.176Z,2.13
2022-08-02T13:19:43.175Z,2.10
2022-08-02T13:22:11.664Z,2.08
2022-08-02T13:24:56.455Z,1.92
2022-08-02T13:27:28.646Z,2.10
2022-08-02T13:29:59.970Z,2.22
2022-08-02T13:32:28.898Z,2.20
2022-08-02T13:34:57.997Z,2.25
2022-08-02T13:37:26.815Z,2.30
2022-08-02T13:40:19.975Z,2.08
2022-08-02T13:42:43.733Z,2.40
2022-08-02T13:45:14.637Z,2.10
2022-08-02T13:47:57.324Z,2.10
2022-08-02T13:50:31.696Z,2.10
2022-08-02T13:52:59.795Z,2.00
2022-08-02T13:55:28.009Z,2.25
2022-08-02T13:57:56.282Z,2.38
2022-08-02T14:00:35.684Z,2.40
2022-08-02T14:03:06.167Z,2.42
2022-08-02T14:05:39.746Z,2.20
2022-08-02T14:08:18.227Z,2.20
2022-08-02T14:10:47.555Z,2.03
2022-08-02T14:13:15.663Z,2.30
2022-08-02T14:15:45.694Z,2.20
2022-08-02T14:18:15.245Z,2.25
2022-08-02T14:20:45.289Z,1.95
2022-08-02T14:23:13.425Z,2.15
2022-08-02T14:25:42.116Z,1.83
2022-08-02T14:28:10.117Z,1.85
2022-08-02T14:30:38.206Z,2.00
2022-08-02T14:33:07.606Z,1.88
2022-08-02T14:35:35.659Z,2.10
2022-08-02T14:38:03.712Z,2.17
2022-08-02T14:40:32.236Z,2.10
2022-08-02T14:43:01.788Z,2.03
2022-08-02T14:45:39.809Z,2.00
2022-08-02T14:48:11.802Z,1.95
2022-08-02T14:50:39.869Z,1.92
2022-08-02T14:53:12.409Z,2.05
2022-08-02T14:55:42.700Z,2.00
2022-08-02T14:58:11.271Z,2.00
2022-08-02T15:00:41.458Z,1.98
2022-08-02T15:03:12.599Z,2.10
2022-08-02T15:05:40.795Z,2.03
2022-08-02T15:08:09.005Z,2.78
2022-08-02T15:10:37.478Z,1.95
2022-08-02T15:13:05.730Z,2.10
2022-08-02T15:15:42.892Z,1.80
2022-08-02T15:18:14.279Z,2.17
2022-08-02T15:20:46.184Z,2.05
2022-08-02T15:23:34.839Z,1.75
2022-08-02T15:26:06.108Z,2.05
2022-08-02T15:28:34.270Z,2.10
2022-08-02T15:31:02.303Z,2.00
2022-08-02T15:33:31.688Z,2.10
2022-08-02T15:35:59.721Z,2.03
2022-08-02T15:38:27.887Z,1.95
2022-08-02T15:40:55.959Z,2.05
2022-08-02T15:43:24.075Z,1.90
2022-08-02T15:45:52.206Z,2.00
2022-08-02T15:48:20.956Z,1.92
2022-08-02T15:50:50.349Z,2.15
2022-08-02T15:53:18.319Z,1.90
2022-08-02T15:56:04.263Z,1.92
2022-08-02T15:58:34.584Z,2.00
2022-08-02T16:01:12.573Z,3.50
2022-08-02T16:03:40.667Z,2.33
2022-08-02T16:06:10.093Z,2.30
2022-08-02T16:08:38.170Z,1.73
2022-08-02T16:11:12.822Z,2.05
2022-08-02T16:13:54.794Z,2.35
2022-08-02T16:16:24.691Z,2.30
2022-08-02T16:18:53.343Z,2.30
2022-08-02T16:21:24.553Z,3.00
2022-08-02T16:24:01.477Z,2.05
2022-08-02T16:26:31.688Z,2.60
2022-08-02T16:29:01.017Z,2.10
2022-08-02T16:31:29.523Z,2.10
2022-08-02T16:33:57.887Z,2.15
2022-08-02T16:36:28.230Z,2.40
2022-08-02T16:38:56.887Z,2.10
2022-08-02T16:41:50.322Z,1.98
2022-08-02T16:44:13.622Z,2.33
2022-08-02T16:46:41.650Z,2.08
2022-08-02T16:50:07.276Z,1.95
2022-08-02T16:52:02.694Z,2.05
2022-08-02T16:54:30.750Z,2.13
2022-08-02T16:56:58.723Z,2.00
2022-08-02T16:59:27.681Z,2.00
2022-08-02T17:04:50.323Z,2.03
2022-08-02T17:08:06.151Z,2.00
2022-08-02T17:10:09.883Z,1.85
2022-08-02T17:12:38.498Z,1.95
2022-08-02T17:16:01.427Z,2.65
2022-08-02T17:17:56.807Z,2.30
2022-08-02T17:20:25.216Z,2.00
2022-08-02T17:22:54.695Z,2.10
2022-08-02T17:25:24.762Z,1.70
2022-08-02T17:27:55.632Z,1.50
2022-08-02T17:30:26.832Z,1.60
2022-08-02T17:32:57.721Z,1.77
2022-08-02T17:35:43.386Z,1.50
2022-08-02T17:38:26.230Z,1.70
2022-08-02T17:40:55.638Z,1.60
2022-08-02T17:43:25.988Z,2.35
2022-08-02T17:46:01.004Z,1.60
2022-08-02T17:48:54.676Z,1.77
2022-08-02T17:52:15.897Z,1.80
2022-08-02T17:54:14.083Z,1.80
2022-08-02T17:56:42.904Z,1.80
2022-08-02T17:59:20.410Z,1.88
2022-08-02T18:01:52.810Z,3.28
2022-08-02T18:04:26.818Z,2.42
2022-08-02T18:06:59.106Z,1.88
2022-08-02T18:09:34.574Z,1.77
2022-08-02T18:12:02.714Z,1.67
2022-08-02T18:14:30.747Z,2.17
2022-08-02T18:16:58.896Z,2.28
2022-08-02T18:19:33.147Z,2.45
2022-08-02T18:22:11.585Z,2.40
2022-08-02T18:24:41.558Z,2.63
2022-08-02T18:27:13.532Z,2.33
2022-08-02T18:29:41.610Z,2.30
2022-08-02T18:32:11.353Z,2.38
2022-08-02T18:34:40.053Z,2.90
2022-08-02T18:37:08.322Z,2.55
2022-08-02T18:39:38.551Z,2.38
2022-08-02T18:42:08.156Z,2.42
2022-08-02T18:44:38.784Z,1.85
2022-08-02T18:47:07.603Z,2.35
2022-08-02T18:52:31.164Z,2.30
2022-08-02T18:54:59.661Z,2.33
2022-08-02T18:58:18.297Z,3.22
2022-08-02T19:00:20.651Z,3.63
2022-08-02T19:02:54.045Z,2.90
2022-08-02T19:05:23.944Z,2.67
2022-08-02T19:08:12.804Z,2.55
2022-08-02T19:10:49.012Z,2.67
2022-08-02T19:13:19.317Z,2.60
2022-08-02T19:15:48.238Z,3.00
2022-08-02T19:18:16.406Z,2.60
2022-08-02T19:20:48.309Z,2.95
2022-08-02T19:23:17.184Z,3.15
2022-08-02T19:25:54.543Z,3.20
2022-08-02T19:28:26.424Z,2.90
2022-08-02T19:30:55.428Z,3.05
2022-08-02T19:33:54.496Z,3.40
2022-08-02T19:36:13.238Z,3.15
2022-08-02T19:38:45.372Z,3.17
2022-08-02T19:41:16.062Z,3.17
2022-08-02T19:44:25.452Z,3.40
2022-08-02T19:46:33.538Z,3.88
2022-08-02T19:49:16.366Z,4.40
2022-08-02T19:51:55.221Z,4.15
2022-08-02T19:54:24.275Z,4.28
2022-08-02T19:57:16.991Z,4.90
2022-08-02T19:59:49.672Z,5.10
2022-08-02T20:02:18.683Z,4.68
2022-08-02T20:04:50.047Z,4.32
2022-08-02T20:07:52.235Z,4.05
2022-08-02T20:10:11.356Z,3.80
2022-08-02T20:12:58.491Z,3.90
2022-08-02T20:15:51.734Z,4.57
2022-08-02T20:21:05.300Z,4.57
2022-08-02T20:23:53.282Z,4.50
2022-08-02T20:26:21.406Z,4.82
2022-08-02T20:28:50.059Z,4.93
2022-08-02T20:31:19.503Z,5.18
2022-08-02T20:33:55.680Z,5.25
2022-08-02T20:36:24.463Z,5.15
2022-08-02T20:38:52.710Z,4.82
2022-08-02T20:41:22.705Z,5.32
2022-08-02T20:43:51.049Z,5.22
2022-08-02T20:46:20.475Z,5.70
2022-08-02T20:48:51.588Z,5.28
2022-08-02T20:51:33.337Z,4.88
2022-08-02T20:54:02.487Z,5.32
2022-08-02T20:56:30.942Z,5.28
2022-08-02T20:59:04.093Z,4.90
2022-08-02T21:01:56.991Z,5.13
2022-08-02T21:04:26.227Z,5.63
2022-08-02T21:06:55.753Z,5.38
2022-08-02T21:09:52.642Z,5.38
2022-08-02T21:12:12.938Z,5.47
2022-08-02T21:14:41.127Z,5.65
2022-08-02T21:17:11.197Z,5.85
2022-08-02T21:19:44.322Z,5.90
2022-08-02T21:22:13.109Z,5.28
2022-08-02T21:24:42.965Z,6.07
2022-08-02T21:27:51.660Z,5.45
2022-08-02T21:30:02.576Z,5.20
2022-08-02T21:32:32.173Z,5.10
2022-08-02T21:35:01.780Z,5.20
2022-08-02T21:37:33.121Z,5.22
2022-08-02T21:40:13.883Z,5.65
2022-08-02T21:42:42.088Z,5.20
2022-08-02T21:45:17.230Z,5.10
2022-08-02T21:47:49.304Z,5.72
2022-08-02T21:50:18.964Z,5.45
2022-08-02T21:52:52.079Z,5.30
2022-08-02T21:55:24.052Z,5.10
2022-08-02T21:58:09.494Z,5.18
2022-08-02T22:00:38.177Z,5.18
2022-08-02T22:05:55.607Z,5.65
2022-08-02T22:08:23.856Z,5.00
2022-08-02T22:11:04.581Z,5.25
2022-08-02T22:13:47.159Z,5.20
2022-08-02T22:16:18.537Z,5.32
2022-08-02T22:18:50.381Z,5.00
2022-08-02T22:21:22.694Z,5.10
2022-08-02T22:23:51.801Z,4.90
2022-08-02T22:26:20.331Z,5.38
2022-08-02T22:28:50.475Z,5.60
2022-08-02T22:31:41.437Z,5.15
2022-08-02T22:34:37.055Z,5.10
2022-08-02T22:36:59.663Z,5.05
2022-08-02T22:39:28.590Z,5.82
2022-08-02T22:42:05.211Z,5.32
2022-08-02T22:44:34.976Z,4.72
2022-08-02T22:47:07.516Z,5.05
2022-08-02T22:49:53.115Z,5.78
2022-08-02T22:52:24.327Z,5.60
2022-08-02T22:54:52.471Z,4.90
2022-08-02T22:57:25.011Z,5.70
2022-08-02T22:58:36.281Z,2.00
2022-08-02T22:58:55.200Z,4.38
2022-08-02T22:59:00.142Z,2.35
2022-08-02T22:59:10.496Z,5.50
2022-08-02T22:59:59.809Z,5.78
2022-08-02T23:02:29.993Z,6.15
2022-08-02T23:04:59.691Z,5.68
2022-08-02T23:07:27.946Z,5.63
2022-08-02T23:09:57.638Z,5.50
2022-08-02T23:12:25.896Z,6.10
2022-08-02T23:14:54.103Z,5.80
2022-08-02T23:17:41.907Z,5.82
2022-08-02T23:20:13.788Z,5.43
2022-08-02T23:22:42.266Z,5.97
2022-08-02T23:25:10.734Z,5.75
2022-08-02T23:27:38.788Z,5.47
2022-08-02T23:30:10.342Z,5.68
2022-08-02T23:32:40.558Z,5.38
2022-08-02T23:35:17.093Z,5.57
2022-08-02T23:37:59.080Z,5.82
2022-08-02T23:40:40.611Z,5.60
2022-08-02T23:43:14.918Z,5.72
2022-08-02T23:45:46.000Z,5.45
2022-08-02T23:48:14.555Z,5.43
2022-08-02T23:50:43.996Z,5.35
2022-08-02T23:53:12.049Z,5.47
2022-08-02T23:55:40.111Z,5.13
2022-08-02T23:58:08.144Z,5.78
